createdAt,value
2022-10-22T00:02:04.238Z,3.80
2022-10-22T00:04:35.356Z,4.22
2022-10-22T00:12:57.184Z,4.05
2022-10-22T00:15:27.068Z,4.10
2022-10-22T00:17:59.962Z,3.92
2022-10-22T00:24:08.448Z,3.90
2022-10-22T00:26:35.163Z,4.13
2022-10-22T00:29:12.481Z,4.40
2022-10-22T00:31:57.754Z,4.03
2022-10-22T00:37:40.953Z,4.00
2022-10-22T00:43:20.930Z,3.80
2022-10-22T00:45:47.709Z,3.90
2022-10-22T00:51:49.765Z,4.03
2022-10-22T00:54:16.637Z,4.35
2022-10-22T00:56:44.762Z,3.85
2022-10-22T01:02:19.018Z,3.83
2022-10-22T01:04:48.214Z,4.22
2022-10-22T01:11:11.831Z,4.45
2022-10-22T01:21:14.259Z,3.58
2022-10-22T01:24:27.614Z,3.97
2022-10-22T01:27:20.160Z,3.53
2022-10-22T01:32:51.319Z,4.38
2022-10-22T01:38:03.802Z,4.15
2022-10-22T01:40:32.198Z,3.45
2022-10-22T01:45:58.103Z,4.00
2022-10-22T01:48:36.728Z,3.47
2022-10-22T01:51:27.798Z,4.05
2022-10-22T01:56:51.058Z,3.70
2022-10-22T01:59:55.745Z,3.85
2022-10-22T02:02:59.281Z,4.30
2022-10-22T02:15:59.063Z,3.85
2022-10-22T02:18:35.269Z,3.90
2022-10-22T02:21:05.751Z,3.70
2022-10-22T02:29:25.605Z,3.90
2022-10-22T02:31:55.956Z,3.80
2022-10-22T02:34:27.675Z,3.70
2022-10-22T02:37:16.709Z,4.10
2022-10-22T02:39:46.702Z,3.53
2022-10-22T02:42:15.429Z,3.50
2022-10-22T02:44:45.915Z,4.18
2022-10-22T02:47:16.636Z,3.92
2022-10-22T02:49:43.387Z,3.67
2022-10-22T02:52:10.148Z,4.22
2022-10-22T02:54:39.703Z,3.47
2022-10-22T02:57:18.741Z,3.90
2022-10-22T02:59:47.664Z,4.00
2022-10-22T03:02:16.552Z,3.55
2022-10-22T03:04:43.280Z,3.72
2022-10-22T03:07:10.083Z,3.85
2022-10-22T03:09:38.919Z,4.03
2022-10-22T03:12:08.604Z,3.55
2022-10-22T03:14:35.782Z,3.25
2022-10-22T03:17:08.049Z,3.47
2022-10-22T03:22:15.589Z,3.70
2022-10-22T03:27:16.578Z,3.92
2022-10-22T03:32:06.900Z,3.65
2022-10-22T03:33:19.528Z,3.80
2022-10-22T03:35:47.918Z,3.25
2022-10-22T03:38:15.262Z,3.47
2022-10-22T03:40:43.784Z,3.40
2022-10-22T03:43:15.481Z,3.78
2022-10-22T03:45:44.955Z,3.70
2022-10-22T03:48:11.713Z,3.70
2022-10-22T03:50:41.466Z,3.35
2022-10-22T03:53:11.223Z,3.55
2022-10-22T03:55:38.290Z,4.00
2022-10-22T04:01:03.896Z,4.07
2022-10-22T04:03:34.055Z,3.50
2022-10-22T04:06:09.159Z,3.65
2022-10-22T04:09:06.551Z,3.40
2022-10-22T04:11:34.574Z,3.70
2022-10-22T04:14:07.491Z,3.28
2022-10-22T04:17:36.401Z,3.60
2022-10-22T04:20:08.433Z,3.70
2022-10-22T04:22:09.047Z,3.55
2022-10-22T04:24:35.799Z,4.13
2022-10-22T04:27:02.492Z,3.35
2022-10-22T04:29:48.542Z,3.17
2022-10-22T04:32:15.222Z,3.58
2022-10-22T04:34:42.945Z,3.90
2022-10-22T04:37:09.753Z,3.42
2022-10-22T04:39:36.449Z,3.83
2022-10-22T04:42:03.893Z,3.33
2022-10-22T04:44:39.890Z,3.50
2022-10-22T04:47:06.821Z,3.53
2022-10-22T04:52:24.318Z,3.70
2022-10-22T04:54:51.221Z,3.55
2022-10-22T04:57:17.939Z,3.30
2022-10-22T04:59:48.180Z,3.00
2022-10-22T05:05:57.082Z,3.83
2022-10-22T05:08:26.370Z,3.17
2022-10-22T05:14:20.771Z,3.67
2022-10-22T05:16:48.825Z,3.40
2022-10-22T05:19:27.194Z,3.33
2022-10-22T05:24:45.829Z,3.60
2022-10-22T05:27:30.641Z,3.20
2022-10-22T05:29:57.381Z,3.17
2022-10-22T05:32:26.470Z,3.53
2022-10-22T05:34:53.140Z,3.65
2022-10-22T05:37:19.817Z,3.10
2022-10-22T05:39:46.482Z,3.88
2022-10-22T05:42:13.215Z,3.85
2022-10-22T05:44:40.909Z,3.42
2022-10-22T05:47:07.693Z,4.05
2022-10-22T05:52:47.293Z,3.60
2022-10-22T05:55:16.187Z,3.75
2022-10-22T05:57:45.140Z,3.45
2022-10-22T06:03:31.724Z,3.42
2022-10-22T06:06:25.747Z,3.83
2022-10-22T06:12:10.284Z,3.40
2022-10-22T06:17:15.150Z,3.38
2022-10-22T06:19:42.753Z,3.13
2022-10-22T06:25:25.810Z,3.85
2022-10-22T06:27:59.758Z,3.70
2022-10-22T06:30:42.890Z,4.07
2022-10-22T06:43:23.825Z,3.55
2022-10-22T06:51:25.106Z,3.83
2022-10-22T06:53:51.881Z,3.00
2022-10-22T07:03:29.447Z,2.95
2022-10-22T07:06:17.728Z,3.20
2022-10-22T07:11:29.172Z,3.17
2022-10-22T07:16:58.728Z,3.97
2022-10-22T07:25:26.466Z,3.17
2022-10-22T07:34:26.039Z,3.13
2022-10-22T07:40:02.879Z,2.75
2022-10-22T07:43:10.194Z,3.10
2022-10-22T07:45:36.931Z,3.53
2022-10-22T07:49:08.641Z,3.17
2022-10-22T08:01:38.014Z,3.95
2022-10-22T08:04:25.130Z,4.28
2022-10-22T08:06:51.883Z,4.50
2022-10-22T08:09:18.565Z,4.05
2022-10-22T08:17:02.655Z,4.70
2022-10-22T08:19:35.660Z,4.53
2022-10-22T08:22:03.092Z,3.80
2022-10-22T08:24:56.272Z,4.63
2022-10-22T08:27:23.098Z,4.35
2022-10-22T08:29:49.866Z,4.50
2022-10-22T08:35:16.962Z,4.40
2022-10-22T08:51:28.042Z,4.78
2022-10-22T09:08:23.115Z,4.65
2022-10-22T09:11:18.928Z,4.30
2022-10-22T09:17:08.052Z,5.25
2022-10-22T09:20:16.223Z,4.63
2022-10-22T09:23:01.645Z,4.97
2022-10-22T09:29:05.576Z,6.53
2022-10-22T09:31:35.822Z,7.53
2022-10-22T09:37:07.028Z,6.72
2022-10-22T09:39:53.149Z,6.25
2022-10-22T09:42:21.086Z,5.95
2022-10-22T09:44:59.259Z,5.90
2022-10-22T09:47:43.446Z,6.90
2022-10-22T09:57:15.080Z,6.43
2022-10-22T09:59:47.835Z,7.13
2022-10-22T10:02:33.656Z,6.25
2022-10-22T10:08:48.819Z,6.22
2022-10-22T10:14:35.050Z,5.35
2022-10-22T10:17:14.144Z,6.03
2022-10-22T10:19:47.576Z,4.72
2022-10-22T10:22:39.919Z,6.35
2022-10-22T10:25:50.045Z,5.60
2022-10-22T10:31:17.179Z,5.43
2022-10-22T10:36:32.426Z,6.63
2022-10-22T10:39:09.244Z,6.07
2022-10-22T10:42:02.073Z,5.88
2022-10-22T10:44:44.938Z,5.90
2022-10-22T10:47:29.811Z,5.93
2022-10-22T10:50:18.641Z,6.28
2022-10-22T10:53:10.588Z,5.72
2022-10-22T10:55:57.272Z,5.38
2022-10-22T10:58:39.118Z,5.72
2022-10-22T11:04:05.296Z,6.32
2022-10-22T11:06:39.637Z,5.30
2022-10-22T11:09:18.214Z,5.25
2022-10-22T11:11:50.448Z,5.65
2022-10-22T11:14:27.911Z,5.35
2022-10-22T11:24:48.360Z,5.05
2022-10-22T11:28:10.999Z,4.85
2022-10-22T11:30:40.894Z,3.88
2022-10-22T11:33:11.818Z,4.68
2022-10-22T11:39:08.817Z,4.95
2022-10-22T11:41:36.979Z,5.07
2022-10-22T11:44:20.828Z,4.45
2022-10-22T11:47:27.791Z,4.65
2022-10-22T11:49:59.019Z,4.47
2022-10-22T11:52:39.087Z,4.68
2022-10-22T11:55:35.009Z,4.50
2022-10-22T11:58:22.747Z,4.03
2022-10-22T12:00:50.001Z,4.65
2022-10-22T12:03:31.695Z,4.93
2022-10-22T12:06:11.862Z,4.13
2022-10-22T12:08:58.095Z,4.35
2022-10-22T12:11:55.893Z,4.30
2022-10-22T12:14:29.614Z,4.28
2022-10-22T12:16:59.200Z,4.38
2022-10-22T12:19:32.718Z,4.10
2022-10-22T12:22:06.450Z,4.40
2022-10-22T12:24:38.276Z,4.43
2022-10-22T12:27:16.592Z,3.58
2022-10-22T12:30:57.927Z,4.18
2022-10-22T12:34:15.029Z,3.83
2022-10-22T12:36:42.514Z,3.80
2022-10-22T12:39:18.558Z,3.72
2022-10-22T12:41:45.515Z,4.00
2022-10-22T12:49:55.264Z,3.50
2022-10-22T12:52:23.776Z,4.65
2022-10-22T12:54:55.103Z,3.42
2022-10-22T12:57:22.305Z,3.10
2022-10-22T12:59:51.309Z,3.53
2022-10-22T13:02:25.255Z,3.90
2022-10-22T13:05:21.713Z,3.40
2022-10-22T13:07:54.432Z,3.88
2022-10-22T13:10:33.117Z,3.95
2022-10-22T13:13:03.173Z,3.95
2022-10-22T13:15:29.842Z,3.65
2022-10-22T13:18:04.794Z,3.75
2022-10-22T13:20:32.472Z,3.70
2022-10-22T13:23:10.463Z,3.78
2022-10-22T13:25:39.795Z,3.50
2022-10-22T13:28:18.166Z,3.38
2022-10-22T13:33:34.068Z,3.90
2022-10-22T13:36:01.026Z,3.15
2022-10-22T13:38:28.772Z,4.05
2022-10-22T13:40:56.195Z,3.55
2022-10-22T13:43:23.345Z,3.25
2022-10-22T13:45:59.507Z,3.28
2022-10-22T13:48:28.026Z,3.40
2022-10-22T13:50:54.844Z,3.13
2022-10-22T13:53:38.185Z,3.05
2022-10-22T13:56:05.245Z,3.22
2022-10-22T13:58:31.968Z,2.97
2022-10-22T14:01:00.747Z,3.30
2022-10-22T14:06:17.269Z,3.20
2022-10-22T14:09:16.914Z,3.10
2022-10-22T14:11:43.713Z,2.90
2022-10-22T14:14:14.202Z,3.25
2022-10-22T14:16:41.527Z,2.83
2022-10-22T14:19:17.552Z,2.95
2022-10-22T14:21:44.587Z,2.67
2022-10-22T14:24:13.215Z,2.65
2022-10-22T14:26:40.493Z,2.92
2022-10-22T14:30:03.639Z,2.83
2022-10-22T14:32:30.536Z,2.40
2022-10-22T14:34:59.396Z,2.63
2022-10-22T14:37:26.083Z,2.80
2022-10-22T14:39:59.651Z,2.75
2022-10-22T14:42:27.835Z,2.60
2022-10-22T14:44:57.659Z,2.85
2022-10-22T14:47:33.590Z,2.60
2022-10-22T14:50:19.234Z,2.70
2022-10-22T14:53:42.943Z,2.55
2022-10-22T14:56:15.869Z,2.47
2022-10-22T14:58:42.683Z,2.75
2022-10-22T15:01:09.789Z,2.45
2022-10-22T15:04:40.042Z,2.58
2022-10-22T15:07:07.016Z,2.90
2022-10-22T15:09:33.775Z,2.60
2022-10-22T15:12:00.477Z,2.42
2022-10-22T15:14:27.712Z,2.80
2022-10-22T15:16:54.490Z,2.55
2022-10-22T15:19:21.214Z,2.55
2022-10-22T15:22:13.779Z,2.40
2022-10-22T15:24:44.697Z,2.60
2022-10-22T15:27:15.366Z,2.40
2022-10-22T15:29:42.735Z,2.55
2022-10-22T15:33:02.888Z,2.35
2022-10-22T15:35:36.002Z,2.08
2022-10-22T15:38:02.885Z,2.40
2022-10-22T15:46:21.794Z,2.08
2022-10-22T15:48:48.557Z,2.83
2022-10-22T15:51:17.744Z,2.35
2022-10-22T15:53:50.387Z,2.80
2022-10-22T15:56:17.097Z,2.35
2022-10-22T15:58:57.775Z,2.50
2022-10-22T16:01:26.271Z,2.40
2022-10-22T16:04:20.695Z,2.22
2022-10-22T16:06:49.944Z,2.10
2022-10-22T16:12:01.911Z,2.45
2022-10-22T16:14:28.988Z,2.38
2022-10-22T16:22:44.947Z,2.40
2022-10-22T16:25:11.669Z,1.92
2022-10-22T16:27:44.499Z,2.30
2022-10-22T16:30:11.712Z,2.15
2022-10-22T16:32:38.554Z,1.90
2022-10-22T16:35:06.077Z,2.00
2022-10-22T16:37:32.789Z,2.10
2022-10-22T16:40:00.996Z,2.13
2022-10-22T16:42:29.776Z,2.25
2022-10-22T16:44:56.478Z,2.45
2022-10-22T16:47:23.187Z,2.47
2022-10-22T16:49:49.858Z,2.15
2022-10-22T16:52:16.570Z,2.20
2022-10-22T16:54:54.947Z,2.60
2022-10-22T16:59:48.908Z,2.05
2022-10-22T17:02:15.654Z,2.45
2022-10-22T17:04:48.455Z,1.95
2022-10-22T17:07:15.181Z,2.22
2022-10-22T17:09:41.890Z,2.08
2022-10-22T17:12:08.714Z,1.83
2022-10-22T17:14:41.399Z,2.20
2022-10-22T17:17:14.181Z,1.83
2022-10-22T17:19:40.888Z,1.95
2022-10-22T17:22:39.945Z,2.20
2022-10-22T17:25:14.602Z,1.85
2022-10-22T17:27:43.356Z,2.25
2022-10-22T17:30:18.693Z,2.00
2022-10-22T17:41:58.967Z,1.92
2022-10-22T17:44:26.071Z,1.98
2022-10-22T17:46:53.339Z,1.95
2022-10-22T17:49:20.844Z,1.98
2022-10-22T17:51:47.788Z,2.00
2022-10-22T17:54:14.693Z,2.00
2022-10-22T17:56:41.808Z,1.83
2022-10-22T17:59:14.451Z,1.95
2022-10-22T18:01:45.390Z,2.17
2022-10-22T18:04:34.038Z,2.03
2022-10-22T18:07:01.118Z,2.00
2022-10-22T18:09:28.026Z,1.90
2022-10-22T18:11:55.685Z,2.08
2022-10-22T18:14:26.137Z,2.00
2022-10-22T18:16:54.777Z,2.20
2022-10-22T18:19:24.605Z,1.67
2022-10-22T18:21:51.682Z,1.98
2022-10-22T18:24:24.043Z,1.98
2022-10-22T18:26:50.948Z,2.90
2022-10-22T18:29:20.993Z,2.58
2022-10-22T18:31:48.724Z,2.60
2022-10-22T18:34:17.757Z,2.53
2022-10-22T18:36:47.271Z,2.10
2022-10-22T18:39:15.904Z,2.45
2022-10-22T18:41:43.343Z,2.58
2022-10-22T18:44:13.870Z,2.63
2022-10-22T18:46:40.795Z,2.50
2022-10-22T18:49:08.119Z,2.17
2022-10-22T18:51:35.597Z,1.88
2022-10-22T18:54:21.716Z,2.20
2022-10-22T18:56:49.698Z,2.33
2022-10-22T18:59:23.417Z,2.15
2022-10-22T19:01:52.654Z,2.78
2022-10-22T19:04:19.651Z,2.10
2022-10-22T19:06:46.431Z,2.53
2022-10-22T19:09:15.028Z,2.60
2022-10-22T19:11:43.767Z,2.88
2022-10-22T19:14:13.032Z,1.88
2022-10-22T19:16:39.829Z,2.35
2022-10-22T19:19:07.470Z,3.13
2022-10-22T19:21:38.381Z,2.60
2022-10-22T19:24:06.819Z,2.75
2022-10-22T19:26:36.986Z,3.03
2022-10-22T19:29:04.315Z,2.72
2022-10-22T19:35:25.679Z,2.80
2022-10-22T19:37:52.423Z,3.10
2022-10-22T19:49:46.587Z,2.97
2022-10-22T19:52:13.505Z,3.40
2022-10-22T19:54:41.825Z,2.72
2022-10-22T19:57:08.884Z,2.92
2022-10-22T19:59:35.594Z,2.72
2022-10-22T20:02:04.075Z,2.45
2022-10-22T20:04:30.936Z,3.08
2022-10-22T20:07:08.981Z,2.55
2022-10-22T20:09:35.886Z,2.50
2022-10-22T20:14:52.397Z,2.55
2022-10-22T20:17:19.221Z,2.67
2022-10-22T20:23:35.062Z,2.58
2022-10-22T20:32:50.121Z,2.28
2022-10-22T20:35:17.094Z,3.00
2022-10-22T20:41:24.468Z,2.60
2022-10-22T20:44:15.506Z,2.42
2022-10-22T20:46:42.920Z,2.60
2022-10-22T20:49:13.401Z,2.35
2022-10-22T20:51:40.532Z,2.47
2022-10-22T20:54:23.357Z,2.13
2022-10-22T20:56:50.326Z,2.47
2022-10-22T20:59:17.383Z,2.75
2022-10-22T21:01:52.069Z,2.40
2022-10-22T21:04:56.702Z,2.38
2022-10-22T21:07:23.477Z,2.63
2022-10-22T21:09:50.147Z,2.40
2022-10-22T21:12:17.468Z,2.35
2022-10-22T21:14:58.715Z,2.67
2022-10-22T21:20:39.525Z,2.42
2022-10-22T21:23:06.593Z,2.50
2022-10-22T21:25:33.519Z,2.15
2022-10-22T21:28:00.427Z,2.35
2022-10-22T21:30:27.196Z,2.40
2022-10-22T21:32:56.024Z,3.20
2022-10-22T21:35:22.783Z,2.22
2022-10-22T21:37:49.436Z,1.92
2022-10-22T21:40:16.232Z,2.10
2022-10-22T21:42:51.260Z,2.60
2022-10-22T21:45:22.150Z,2.40
2022-10-22T21:47:49.422Z,2.50
2022-10-22T21:50:18.843Z,2.00
2022-10-22T21:52:45.507Z,2.90
2022-10-22T21:55:15.359Z,2.70
2022-10-22T21:57:53.960Z,2.08
2022-10-22T22:00:21.972Z,2.42
2022-10-22T22:02:48.747Z,2.75
2022-10-22T22:06:08.983Z,2.47
2022-10-22T22:08:35.779Z,2.08
2022-10-22T22:11:14.005Z,2.45
2022-10-22T22:16:54.569Z,2.10
2022-10-22T22:23:39.859Z,2.65
2022-10-22T22:31:50.125Z,2.25
2022-10-22T22:34:32.301Z,2.55
2022-10-22T22:36:59.016Z,2.60
2022-10-22T22:39:25.747Z,2.28
2022-10-22T22:41:52.580Z,2.10
2022-10-22T22:44:19.410Z,2.35
2022-10-22T22:46:49.441Z,2.08
2022-10-22T22:49:17.447Z,2.17
2022-10-22T22:51:44.508Z,2.20
2022-10-22T22:54:11.426Z,2.42
2022-10-22T22:56:38.600Z,2.20
2022-10-22T22:59:06.164Z,2.10
2022-10-22T23:01:37.793Z,2.05
2022-10-22T23:04:07.442Z,2.65
2022-10-22T23:06:56.818Z,2.40
2022-10-22T23:09:23.867Z,2.55
2022-10-22T23:11:56.990Z,2.13
2022-10-22T23:33:28.071Z,2.03
2022-10-22T23:57:14.837Z,1.80
